Terminal Aerodrome Forecast
Issued by NWS

Home | Current Version | Previous Version | Text Only | Print | Product List | Glossary On
Versions: 1 2 3 4 5 6 7 8 9 10 11 12 13 14 15 16 17 18 19 20 21 22 23 24 25
000
FTPA31 PHFO 181700
TAFMKK
TAF
PHMK 181736Z 1818/1918 05010G17KT P6SM -SHRA SCT020 BKN035
     FM182000 05014G22KT P6SM VCSH SCT030 SCT045
     FM190500 06010G15KT P6SM SCT025 SCT040=

USA.gov is the U.S. government's official web portal to all federal, state and local government web resources and services.